Aeroporto :
LOGIN :

Iscrizione | Disclaimer

   EN    FR    IT 

 










Sommario :    VFR   VFR Marginale   IFR   IFR Intensivo   IFR Molto Intensivo
Visibilità : 
Base nubi : 
>= 8 km
>= 3000ft
5 / 8 km
1000 / 3000 ft
1500m / 5 km
500 / 1000 ft
800 / 1500m
200 / 500 ft
< 800m
< 200 ft
Simboli :   Temporali  Nebbia  Neve Forte  Precipitazioni Forti  Vento > 20 kt
SIGMETs :   Varie  Temporali  Ghiacco  Turbolenza  Onda orograficha  Ceneri Vulcaniche






- Altitudine del aeroporto : 604 ft
- Codice IATA : LCJ


EPLL - Lodz

ULTIMO METAR :
  • 051700Z 24008KT CAVOK 26/17 Q1010

METARs OBSOLETI :
  • 051630Z 23010KT CAVOK 27/16 Q1010
  • 051600Z 23012KT CAVOK 27/16 Q1011
  • 051530Z 23010KT CAVOK 28/16 Q1011
  • 051500Z 23011KT 200V260 CAVOK 28/16 Q1011
  • 051430Z 23012KT 190V260 CAVOK 28/16 Q1011

TAF TAF EPLL
Valido dal 05 a 12 ore il 06 a 12 ore UTC


051130Z 0512/0612 22010KT 9999 SCT045
PROB40
TEMPO 0512/0518 25015G25KT BKN040TCU
PROB40
TEMPO 0604/0612 -SHRA BKN020CB
BECMG 0607/0609 28010KT



MetMap, La meteo Aeronautica in un colpo d'occhio ! - Copyright ORBIFLY Dicembre 2007 - Disclaimer

ORBIFLY MET'MAP TEAM :

Programmazione e sviluppo : Alexandra Zaïnal
Concezione : Baudouin d'Aumeries
Aiuto per la programmazione : Marc-Olivier Méhu
Supporto tecnico e logistico : Manuel Goepfert
Aiuto per la traduzione : Arnaldo La Scala

Contatto : metmap@orbifly.com




FONTI E CREDITI :

   NOAA